Time;durP1;ratioP1;P1;durP2;ratioP2;P2;SDS_P1;SDS_P2;PMS_P1;PMS_P2;Temp;Humidity;BMP_temperature;BMP_pressure;BME280_temperature;BME280_humidity;BME280_pressure;Samples;Min_cycle;Max_cycle;Signal;HPM_P1;HPM_P2
2021/11/28 00:02:16;;;;;;;10.40;6.00;;;10.20;84.10;;;;;;5095456;28;20508;-77
2021/11/28 00:04:41;;;;;;;9.70;5.50;;;10.20;84.20;;;;;;5094235;28;20407;-77
2021/11/28 00:08:09;;;;;;;8.60;5.15;;;10.30;84.30;;;;;;5095151;28;20020;-77
2021/11/28 00:12:42;;;;;;;10.18;5.65;;;10.20;84.30;;;;;;5095343;28;20615;-77
2021/11/28 00:15:11;;;;;;;8.75;4.90;;;10.10;84.30;;;;;;5093933;28;20081;-77
2021/11/28 00:17:36;;;;;;;9.90;5.20;;;10.20;84.30;;;;;;5093929;28;20021;-77
2021/11/28 00:20:06;;;;;;;9.35;5.00;;;10.20;84.40;;;;;;5093770;28;20078;-77
2021/11/28 00:22:32;;;;;;;8.38;4.85;;;10.20;84.30;;;;;;5093973;28;20031;-77
2021/11/28 00:24:58;;;;;;;7.88;4.85;;;10.20;84.90;;;;;;5094641;28;20089;-77
2021/11/28 00:27:23;;;;;;;8.85;4.78;;;10.20;84.40;;;;;;5095038;28;20028;-77
2021/11/28 00:29:49;;;;;;;9.13;4.93;;;10.10;84.30;;;;;;5094013;28;20024;-77
2021/11/28 00:32:15;;;;;;;8.43;4.50;;;10.10;84.30;;;;;;5093566;28;20560;-77
2021/11/28 00:34:40;;;;;;;9.30;4.68;;;10.20;84.30;;;;;;5094917;28;20020;-77
2021/11/28 00:37:08;;;;;;;8.32;4.72;;;10.00;84.20;;;;;;5094574;28;20091;-77
2021/11/28 00:39:33;;;;;;;8.65;4.70;;;10.10;84.20;;;;;;5094957;28;20027;-77
2021/11/28 00:42:00;;;;;;;8.73;4.70;;;10.20;84.20;;;;;;5093575;28;20028;-77
2021/11/28 00:44:26;;;;;;;8.82;4.90;;;10.20;84.20;;;;;;5093323;28;20024;-77
2021/11/28 00:46:51;;;;;;;7.95;4.53;;;10.20;84.20;;;;;;5094387;28;20032;-77
2021/11/28 00:49:21;;;;;;;9.60;4.45;;;10.20;84.30;;;;;;5094945;28;20027;-77
2021/11/28 00:51:49;;;;;;;8.88;4.47;;;10.20;84.30;;;;;;5093562;28;20027;-77
2021/11/28 00:54:16;;;;;;;7.13;4.07;;;10.20;84.30;;;;;;5093259;28;20035;-77
2021/11/28 00:56:43;;;;;;;9.88;4.85;;;10.10;84.30;;;;;;5092889;28;20558;-76
2021/11/28 00:59:08;;;;;;;8.75;4.30;;;10.20;84.30;;;;;;5093154;28;20396;-76
2021/11/28 01:01:34;;;;;;;9.85;4.78;;;10.10;84.30;;;;;;5093565;28;20119;-77
2021/11/28 01:04:03;;;;;;;9.82;4.60;;;10.20;84.30;;;;;;5093965;28;20058;-77
2021/11/28 01:06:29;;;;;;;8.57;4.25;;;10.20;84.40;;;;;;5094923;28;20420;-78
2021/11/28 01:08:55;;;;;;;8.80;4.13;;;10.20;83.40;;;;;;5093568;28;20077;-77
2021/11/28 01:11:22;;;;;;;8.00;3.95;;;10.10;82.10;;;;;;5093308;28;20028;-76
2021/11/28 01:13:48;;;;;;;8.82;4.20;;;10.20;80.90;;;;;;5092914;28;20020;-76
2021/11/28 01:16:14;;;;;;;9.15;4.15;;;10.00;79.10;;;;;;5093876;28;20386;-76
2021/11/28 01:18:40;;;;;;;6.57;3.92;;;10.10;80.90;;;;;;5093570;28;20020;-76
2021/11/28 01:21:06;;;;;;;9.07;4.38;;;10.10;81.90;;;;;;5092480;28;20674;-76
2021/11/28 01:23:32;;;;;;;8.43;4.45;;;10.10;82.30;;;;;;5093753;28;20024;-76
2021/11/28 01:25:58;;;;;;;7.72;4.28;;;10.10;82.80;;;;;;5093576;28;20683;-76
2021/11/28 01:28:24;;;;;;;7.60;4.32;;;10.10;83.00;;;;;;5093602;28;20077;-76
2021/11/28 01:30:49;;;;;;;9.07;4.32;;;10.00;83.20;;;;;;5092479;28;20070;-76
2021/11/28 01:33:15;;;;;;;8.90;4.45;;;10.20;83.50;;;;;;5092596;28;20020;-76
2021/11/28 01:35:41;;;;;;;7.60;3.90;;;10.10;83.50;;;;;;5093737;28;20097;-76
2021/11/28 01:38:07;;;;;;;9.50;4.70;;;10.20;83.70;;;;;;5092396;28;20447;-76
2021/11/28 01:40:33;;;;;;;8.25;4.00;;;10.00;83.60;;;;;;5092502;28;20052;-76
2021/11/28 01:43:05;;;;;;;8.30;4.30;;;10.20;83.80;;;;;;5092595;28;20061;-76
2021/11/28 01:45:32;;;;;;;7.63;3.88;;;10.20;83.80;;;;;;5092552;28;20034;-76
2021/11/28 01:48:01;;;;;;;8.02;4.13;;;10.20;84.00;;;;;;5093043;28;20107;-76
2021/11/28 01:50:30;;;;;;;7.63;4.07;;;10.20;84.00;;;;;;5093110;28;20213;-77
2021/11/28 01:52:56;;;;;;;8.02;4.00;;;10.20;84.00;;;;;;5091695;28;20020;-77
2021/11/28 01:55:25;;;;;;;9.00;4.45;;;10.20;84.00;;;;;;5090935;28;20026;-76
2021/11/28 01:57:51;;;;;;;7.78;3.83;;;10.20;84.00;;;;;;5092610;28;20020;-77
2021/11/28 02:00:26;;;;;;;7.22;4.00;;;10.20;84.10;;;;;;5092804;28;20024;-77
2021/11/28 02:02:52;;;;;;;7.45;4.25;;;10.20;84.10;;;;;;5091567;28;20024;-76
2021/11/28 02:05:19;;;;;;;10.75;4.25;;;10.10;84.10;;;;;;5091620;28;20577;-76
2021/11/28 02:07:45;;;;;;;9.00;3.75;;;10.20;84.20;;;;;;5092455;28;20401;-77
2021/11/28 02:10:12;;;;;;;8.90;3.92;;;10.20;84.20;;;;;;5092792;28;20024;-76
2021/11/28 02:12:38;;;;;;;8.95;3.90;;;10.20;84.20;;;;;;5091401;28;20374;-77
2021/11/28 02:15:04;;;;;;;9.05;4.10;;;10.20;84.20;;;;;;5092748;28;20027;-77
2021/11/28 02:17:30;;;;;;;7.55;4.10;;;10.20;84.30;;;;;;5091280;28;20027;-77
2021/11/28 02:19:56;;;;;;;8.02;4.07;;;10.20;84.30;;;;;;5091479;28;20028;-77
2021/11/28 02:22:22;;;;;;;7.85;4.10;;;10.20;84.30;;;;;;5091458;28;20020;-77
2021/11/28 02:24:48;;;;;;;7.93;4.00;;;10.30;84.30;;;;;;5090925;28;20032;-77
2021/11/28 02:27:14;;;;;;;8.65;3.95;;;10.20;84.30;;;;;;5075892;22;20498;-77
2021/11/28 02:29:42;;;;;;;7.57;4.00;;;10.20;84.30;;;;;;5051073;28;20029;-78
2021/11/28 02:32:09;;;;;;;7.88;4.50;;;10.10;84.30;;;;;;5052402;28;20025;-77
2021/11/28 02:34:35;;;;;;;7.18;3.85;;;10.20;84.30;;;;;;5051077;28;20021;-77
2021/11/28 02:37:01;;;;;;;8.20;3.83;;;10.20;84.40;;;;;;5067379;28;20027;-77
2021/11/28 02:39:27;;;;;;;7.53;3.67;;;10.20;84.40;;;;;;5071212;28;20029;-77
2021/11/28 02:41:53;;;;;;;8.25;3.75;;;10.20;84.90;;;;;;5072405;28;20500;-77
2021/11/28 02:44:18;;;;;;;7.93;4.00;;;10.10;84.40;;;;;;5072372;28;20025;-78
2021/11/28 02:46:45;;;;;;;7.85;3.90;;;10.20;84.50;;;;;;5070942;28;20028;-78
2021/11/28 02:49:10;;;;;;;7.20;3.70;;;10.20;84.50;;;;;;5071070;28;20053;-78
2021/11/28 02:51:37;;;;;;;8.60;4.03;;;10.20;84.50;;;;;;5072401;28;20052;-78
2021/11/28 02:54:06;;;;;;;7.18;4.15;;;10.20;84.50;;;;;;5070976;28;20032;-78
2021/11/28 02:56:33;;;;;;;7.57;3.88;;;10.20;84.50;;;;;;5071968;28;20024;-77
2021/11/28 02:58:59;;;;;;;7.75;3.83;;;10.20;84.50;;;;;;5071072;28;20397;-78
2021/11/28 03:01:25;;;;;;;7.10;4.15;;;10.20;84.50;;;;;;5070918;28;20109;-78
2021/11/28 03:03:52;;;;;;;7.93;4.15;;;10.10;84.40;;;;;;5071001;28;20714;-77
2021/11/28 03:06:17;;;;;;;9.80;4.03;;;10.10;84.40;;;;;;5070756;28;20024;-77
2021/11/28 03:08:43;;;;;;;7.50;4.18;;;10.00;84.30;;;;;;5074529;28;20027;-77
2021/11/28 03:11:12;;;;;;;7.18;3.80;;;10.30;84.50;;;;;;5075855;28;20024;-78
2021/11/28 03:13:41;;;;;;;7.10;3.80;;;10.20;84.30;;;;;;5074411;28;20508;-78
2021/11/28 03:16:11;;;;;;;8.35;3.92;;;10.20;84.30;;;;;;5075844;28;20020;-77
2021/11/28 03:18:37;;;;;;;8.15;3.92;;;10.30;84.30;;;;;;5073437;28;20017;-78
2021/11/28 03:21:09;;;;;;;7.43;3.63;;;10.20;84.30;;;;;;5074349;28;20448;-78
2021/11/28 03:23:37;;;;;;;7.57;3.67;;;10.20;84.30;;;;;;5074566;28;20017;-77
2021/11/28 03:26:16;;;;;;;7.78;3.78;;;10.10;84.20;;;;;;5075404;28;20032;-77
2021/11/28 03:28:49;;;;;;;7.35;3.78;;;10.20;84.20;;;;;;5074172;28;20079;-79
2021/11/28 03:31:15;;;;;;;6.70;3.75;;;10.10;84.10;;;;;;5074462;28;20028;-77
2021/11/28 03:33:41;;;;;;;8.68;4.00;;;10.00;84.10;;;;;;5075371;28;20016;-77
2021/11/28 03:36:09;;;;;;;6.95;3.72;;;10.20;84.10;;;;;;5075398;28;20017;-77
2021/11/28 03:38:37;;;;;;;8.15;3.83;;;10.10;84.60;;;;;;5073924;28;20115;-77
2021/11/28 03:41:03;;;;;;;7.95;4.05;;;10.20;84.20;;;;;;5074525;28;20060;-77
2021/11/28 03:43:29;;;;;;;7.85;4.18;;;10.10;84.10;;;;;;5075416;28;20134;-77
2021/11/28 03:45:55;;;;;;;7.72;3.80;;;10.20;84.10;;;;;;5075280;28;20021;-78
2021/11/28 03:48:20;;;;;;;7.50;4.03;;;10.20;84.10;;;;;;5074961;28;20032;-79
2021/11/28 03:50:46;;;;;;;7.68;3.92;;;10.10;84.10;;;;;;5073779;28;20054;-77
2021/11/28 03:53:12;;;;;;;11.43;4.50;;;10.20;84.10;;;;;;5075223;28;20029;-77
2021/11/28 03:55:37;;;;;;;8.23;3.60;;;10.20;84.10;;;;;;5073698;28;20055;-77
2021/11/28 03:58:05;;;;;;;8.15;4.05;;;10.20;84.20;;;;;;5073655;28;20020;-79
2021/11/28 04:00:31;;;;;;;7.75;3.92;;;10.00;84.10;;;;;;5074966;28;20029;-77
2021/11/28 04:02:57;;;;;;;8.48;3.92;;;10.20;84.20;;;;;;5074009;28;20035;-77
2021/11/28 04:05:23;;;;;;;7.25;4.30;;;10.20;84.20;;;;;;5073609;28;20024;-77
2021/11/28 04:07:49;;;;;;;8.57;4.55;;;10.20;84.20;;;;;;5073489;28;20398;-78
2021/11/28 04:10:14;;;;;;;8.68;4.28;;;10.30;84.30;;;;;;5074770;28;20027;-77
2021/11/28 04:12:40;;;;;;;6.85;3.53;;;10.20;84.30;;;;;;5073772;28;20052;-77
2021/11/28 04:15:06;;;;;;;6.65;3.70;;;10.20;84.30;;;;;;5073514;28;20410;-77
2021/11/28 04:17:32;;;;;;;8.93;4.00;;;10.20;84.20;;;;;;5073199;28;20434;-77
2021/11/28 04:19:58;;;;;;;8.38;4.20;;;10.20;84.20;;;;;;5072805;28;20028;-77
2021/11/28 04:22:23;;;;;;;7.78;3.78;;;10.30;84.70;;;;;;5073333;28;20024;-77
2021/11/28 04:24:50;;;;;;;6.88;3.88;;;10.10;84.00;;;;;;5074601;28;20032;-77
2021/11/28 04:27:16;;;;;;;8.57;4.53;;;10.30;83.90;;;;;;5072924;28;20085;-77
2021/11/28 04:29:42;;;;;;;7.38;4.10;;;10.20;83.80;;;;;;5073003;28;20025;-77
2021/11/28 04:32:08;;;;;;;9.25;4.28;;;10.40;83.90;;;;;;5073172;28;20020;-77
2021/11/28 04:34:33;;;;;;;8.07;4.18;;;10.30;83.70;;;;;;5073042;28;20436;-77
2021/11/28 04:36:59;;;;;;;8.00;3.70;;;10.40;83.70;;;;;;5072858;28;20063;-77
2021/11/28 04:39:25;;;;;;;8.60;4.38;;;10.30;83.70;;;;;;5073105;28;20024;-77
2021/11/28 04:41:50;;;;;;;7.85;3.80;;;10.30;83.60;;;;;;5074284;28;20036;-77
2021/11/28 04:44:16;;;;;;;8.73;3.90;;;10.30;83.60;;;;;;5072904;28;20017;-77
2021/11/28 04:46:42;;;;;;;8.30;3.63;;;10.30;83.50;;;;;;5072664;28;20029;-77
2021/11/28 04:49:07;;;;;;;8.93;3.85;;;10.20;83.50;;;;;;5072892;28;20024;-77
2021/11/28 04:51:33;;;;;;;8.35;4.15;;;10.20;83.50;;;;;;5074013;28;20031;-77
2021/11/28 04:53:59;;;;;;;8.65;3.72;;;10.20;83.40;;;;;;5074026;28;20028;-78
2021/11/28 04:56:27;;;;;;;5.95;3.53;;;10.30;83.40;;;;;;5072367;28;20028;-77
2021/11/28 04:58:53;;;;;;;8.43;3.95;;;10.30;83.40;;;;;;5072406;28;20032;-77
2021/11/28 05:01:21;;;;;;;7.95;3.90;;;10.30;83.40;;;;;;5072506;28;20151;-77
2021/11/28 05:03:47;;;;;;;5.82;3.53;;;10.30;83.30;;;;;;5072580;28;20027;-77
2021/11/28 05:06:13;;;;;;;7.38;4.10;;;10.30;83.40;;;;;;5073712;28;20028;-77
2021/11/28 05:08:38;;;;;;;9.27;3.83;;;10.30;83.50;;;;;;5072355;28;20027;-79
2021/11/28 05:11:04;;;;;;;7.32;3.58;;;10.20;83.60;;;;;;5072210;28;20031;-77
2021/11/28 05:13:30;;;;;;;6.07;3.50;;;10.20;83.70;;;;;;5072319;28;20029;-77
2021/11/28 05:15:55;;;;;;;6.70;3.70;;;10.20;83.90;;;;;;5072349;28;20020;-77
2021/11/28 05:18:21;;;;;;;8.30;3.75;;;10.30;84.10;;;;;;5071126;28;20470;-77
2021/11/28 05:20:48;;;;;;;8.32;4.07;;;10.10;84.20;;;;;;5072072;28;20024;-77
2021/11/28 05:23:14;;;;;;;9.13;4.20;;;10.20;84.30;;;;;;5072181;28;20024;-76
2021/11/28 05:25:40;;;;;;;7.22;3.70;;;10.10;84.40;;;;;;5072044;28;20544;-76
2021/11/28 05:28:08;;;;;;;7.88;3.78;;;10.20;84.50;;;;;;5071799;28;20028;-77
2021/11/28 05:30:37;;;;;;;8.63;4.13;;;10.20;84.60;;;;;;5072387;28;20060;-77
2021/11/28 05:33:03;;;;;;;6.18;3.35;;;10.10;84.60;;;;;;5071876;28;20048;-78
2021/11/28 05:35:29;;;;;;;7.82;3.60;;;10.20;84.70;;;;;;5072006;28;20074;-78
2021/11/28 05:37:55;;;;;;;7.35;4.13;;;10.10;84.70;;;;;;5071104;28;20024;-78
2021/11/28 05:40:21;;;;;;;7.38;3.83;;;10.20;84.80;;;;;;5073075;28;20071;-78
2021/11/28 05:42:50;;;;;;;9.07;3.97;;;10.00;84.60;;;;;;5071812;28;20033;-78
2021/11/28 05:45:17;;;;;;;7.25;3.80;;;10.20;84.70;;;;;;5071720;28;20024;-79
2021/11/28 05:47:42;;;;;;;7.85;3.88;;;10.20;84.80;;;;;;5071723;28;20032;-78
2021/11/28 05:50:09;;;;;;;7.28;3.50;;;10.00;84.60;;;;;;5072862;28;20473;-78
2021/11/28 05:52:36;;;;;;;8.13;4.05;;;10.10;84.70;;;;;;5071633;28;20029;-78
2021/11/28 05:55:04;;;;;;;8.85;4.00;;;10.10;84.70;;;;;;5072567;28;20028;-78
2021/11/28 05:57:30;;;;;;;6.95;3.90;;;10.10;84.60;;;;;;5071499;28;20102;-78
2021/11/28 05:59:56;;;;;;;7.15;3.60;;;10.10;84.60;;;;;;5072939;28;20367;-77
2021/11/28 06:02:22;;;;;;;7.05;3.95;;;10.10;84.70;;;;;;5072886;28;20055;-77
2021/11/28 06:04:47;;;;;;;9.30;4.20;;;10.00;84.60;;;;;;5071489;28;20025;-77
2021/11/28 06:07:13;;;;;;;7.20;4.15;;;10.20;84.70;;;;;;5071385;28;20115;-77
2021/11/28 06:09:39;;;;;;;7.25;3.65;;;10.10;84.70;;;;;;5071330;28;20025;-77
2021/11/28 06:12:05;;;;;;;7.20;3.83;;;10.00;84.60;;;;;;5071618;28;20535;-77
2021/11/28 06:14:30;;;;;;;6.97;3.70;;;10.10;84.60;;;;;;5071389;28;20055;-77
2021/11/28 06:16:56;;;;;;;7.95;4.00;;;10.10;84.70;;;;;;5071079;28;20017;-78
2021/11/28 06:19:22;;;;;;;6.97;3.95;;;10.10;84.60;;;;;;5071278;28;20024;-77
2021/11/28 06:21:47;;;;;;;6.90;3.78;;;10.00;84.60;;;;;;5072678;28;20048;-77
2021/11/28 06:24:13;;;;;;;7.43;3.90;;;10.20;84.70;;;;;;5071374;28;20111;-77
2021/11/28 06:26:39;;;;;;;6.18;3.80;;;10.10;85.30;;;;;;5071005;28;20041;-81
2021/11/28 06:29:05;;;;;;;7.50;4.00;;;10.10;84.70;;;;;;5071269;28;20114;-77
2021/11/28 06:31:31;;;;;;;8.27;4.10;;;10.10;84.70;;;;;;5071279;28;20024;-77
2021/11/28 06:33:56;;;;;;;7.15;3.97;;;10.00;84.60;;;;;;5071221;28;20081;-77
2021/11/28 06:36:22;;;;;;;7.95;3.78;;;10.10;84.70;;;;;;5071158;28;20025;-77
2021/11/28 06:38:48;;;;;;;7.97;4.00;;;10.20;85.20;;;;;;5072381;28;20021;-77
2021/11/28 06:41:14;;;;;;;7.00;3.72;;;10.10;84.60;;;;;;5072679;28;20023;-77
2021/11/28 06:43:39;;;;;;;8.55;4.20;;;10.20;84.70;;;;;;5075119;28;20116;-77
2021/11/28 06:46:05;;;;;;;6.15;3.53;;;10.20;84.70;;;;;;5075233;28;20036;-77
2021/11/28 06:48:31;;;;;;;7.03;3.72;;;10.00;84.60;;;;;;5076158;28;20057;-77
2021/11/28 06:50:56;;;;;;;6.50;3.47;;;10.10;84.60;;;;;;5076153;28;20052;-77
2021/11/28 06:53:22;;;;;;;7.88;3.78;;;10.10;84.60;;;;;;5076185;28;20024;-77
2021/11/28 06:55:47;;;;;;;6.90;4.00;;;10.10;84.50;;;;;;5075992;28;20103;-77
2021/11/28 06:58:15;;;;;;;6.13;3.55;;;10.10;84.50;;;;;;5074926;28;20060;-77
2021/11/28 07:00:41;;;;;;;7.32;3.70;;;10.20;84.50;;;;;;5074945;28;20031;-77
2021/11/28 07:03:06;;;;;;;7.60;4.10;;;10.10;84.40;;;;;;5074713;28;20029;-77
2021/11/28 07:05:32;;;;;;;7.70;4.13;;;10.20;84.30;;;;;;5074755;28;20028;-77
2021/11/28 07:07:58;;;;;;;6.47;3.78;;;10.10;84.30;;;;;;5074706;28;20025;-77
2021/11/28 07:10:23;;;;;;;7.65;4.00;;;10.20;84.30;;;;;;5074588;28;20118;-77
2021/11/28 07:12:50;;;;;;;7.05;3.88;;;10.10;84.20;;;;;;5074764;28;20071;-77
2021/11/28 07:15:15;;;;;;;8.73;4.32;;;10.10;84.20;;;;;;5074482;28;20389;-77
2021/11/28 07:17:41;;;;;;;7.65;4.18;;;10.10;84.20;;;;;;5075573;28;20099;-77
2021/11/28 07:20:07;;;;;;;7.95;4.13;;;10.10;84.10;;;;;;5074699;28;20029;-77
2021/11/28 07:22:34;;;;;;;7.25;3.95;;;10.10;84.10;;;;;;5075716;28;20029;-77
2021/11/28 07:25:00;;;;;;;8.00;4.22;;;10.00;84.10;;;;;;5074848;28;20125;-77
2021/11/28 07:27:26;;;;;;;8.68;4.15;;;10.10;84.10;;;;;;5075966;28;20115;-77
2021/11/28 07:29:51;;;;;;;8.68;4.07;;;10.00;84.10;;;;;;5075861;28;20115;-77
2021/11/28 07:32:17;;;;;;;6.80;3.90;;;10.20;84.10;;;;;;5076375;28;20074;-77
2021/11/28 07:34:42;;;;;;;7.30;4.35;;;10.00;83.90;;;;;;5076225;28;20095;-77
2021/11/28 07:37:08;;;;;;;6.85;3.63;;;10.10;84.00;;;;;;5074790;28;20457;-77
2021/11/28 07:39:34;;;;;;;7.40;4.20;;;10.10;84.00;;;;;;5074545;28;20021;-77
2021/11/28 07:41:59;;;;;;;6.90;3.97;;;10.20;84.00;;;;;;5071294;28;20024;-78
2021/11/28 07:44:25;;;;;;;6.78;4.13;;;10.10;83.90;;;;;;5071112;28;20032;-78
2021/11/28 07:46:51;;;;;;;7.85;4.35;;;10.10;83.90;;;;;;5071374;28;20489;-77
2021/11/28 07:49:16;;;;;;;8.10;4.35;;;10.20;83.90;;;;;;5070913;28;20024;-78
2021/11/28 07:51:42;;;;;;;8.15;4.13;;;10.10;83.80;;;;;;5052758;28;20028;-79
2021/11/28 07:54:08;;;;;;;8.15;4.15;;;10.20;83.80;;;;;;5050334;28;20029;-76
2021/11/28 07:56:34;;;;;;;7.60;4.32;;;10.20;83.70;;;;;;5052504;28;20021;-77
2021/11/28 07:58:59;;;;;;;6.75;4.32;;;10.20;83.60;;;;;;5052057;28;20018;-78
2021/11/28 08:01:25;;;;;;;8.07;4.30;;;10.20;83.60;;;;;;5069545;28;20055;-76
2021/11/28 08:03:51;;;;;;;9.50;4.80;;;10.30;83.60;;;;;;5071045;28;20070;-77
2021/11/28 08:06:17;;;;;;;8.80;4.30;;;10.20;83.50;;;;;;5072329;28;20028;-79
2021/11/28 08:08:43;;;;;;;8.80;4.15;;;10.20;83.60;;;;;;5071138;28;20030;-78
2021/11/28 08:11:08;;;;;;;7.82;4.50;;;10.20;83.60;;;;;;5070733;28;20044;-79
2021/11/28 08:13:34;;;;;;;7.90;4.57;;;10.10;83.60;;;;;;5072249;28;20056;-80
2021/11/28 08:16:00;;;;;;;7.25;4.40;;;10.20;83.60;;;;;;5070646;28;20027;-78
2021/11/28 08:18:26;;;;;;;6.50;4.10;;;10.20;83.70;;;;;;5071110;28;20021;-78
2021/11/28 08:20:52;;;;;;;7.00;4.32;;;10.10;83.60;;;;;;5070751;28;20024;-78
2021/11/28 08:23:18;;;;;;;7.53;4.45;;;10.10;83.60;;;;;;5071000;28;20028;-78
2021/11/28 08:25:43;;;;;;;7.80;4.38;;;10.20;83.60;;;;;;5070590;28;20025;-78
2021/11/28 08:28:09;;;;;;;7.18;4.13;;;10.10;83.60;;;;;;5071753;28;20025;-77
2021/11/28 08:30:38;;;;;;;9.25;4.88;;;10.00;83.50;;;;;;5070291;28;20021;-79
2021/11/28 08:33:05;;;;;;;7.90;4.60;;;10.10;83.60;;;;;;5070324;28;20078;-77
2021/11/28 08:35:31;;;;;;;10.65;4.90;;;10.10;83.70;;;;;;5070472;28;20029;-77
2021/11/28 08:37:58;;;;;;;9.57;4.70;;;10.20;83.60;;;;;;5069855;28;20031;-77
2021/11/28 08:40:24;;;;;;;11.30;5.00;;;10.00;83.40;;;;;;5070922;28;20532;-78
2021/11/28 08:42:50;;;;;;;8.15;4.75;;;10.10;83.50;;;;;;5071717;28;20474;-77
2021/11/28 08:45:17;;;;;;;11.60;5.13;;;10.20;83.60;;;;;;5071810;28;20055;-77
2021/11/28 08:47:43;;;;;;;12.05;5.63;;;10.20;83.60;;;;;;5070616;28;20131;-78
2021/11/28 08:50:10;;;;;;;11.05;6.05;;;10.10;83.50;;;;;;5070480;28;20032;-80
2021/11/28 08:52:37;;;;;;;10.80;5.82;;;10.30;83.70;;;;;;5070324;28;20074;-79
2021/11/28 08:55:04;;;;;;;14.15;5.93;;;10.10;83.60;;;;;;5070719;28;20017;-78
2021/11/28 08:57:30;;;;;;;10.88;6.00;;;10.10;83.60;;;;;;5069561;28;20027;-78
2021/11/28 08:59:55;;;;;;;12.88;5.80;;;10.00;83.50;;;;;;5070611;28;20370;-76
2021/11/28 09:02:21;;;;;;;14.07;6.15;;;10.20;83.70;;;;;;5070020;28;20020;-77
2021/11/28 09:04:47;;;;;;;11.70;6.30;;;10.00;83.50;;;;;;5070696;28;20071;-77
2021/11/28 09:07:12;;;;;;;12.35;6.18;;;10.10;83.60;;;;;;5070776;28;20036;-78
2021/11/28 09:09:38;;;;;;;11.05;6.13;;;10.10;83.50;;;;;;5071112;28;20021;-79
2021/11/28 09:12:05;;;;;;;13.48;6.40;;;10.20;83.60;;;;;;5071702;28;20052;-77
2021/11/28 09:14:30;;;;;;;12.30;6.45;;;10.10;83.40;;;;;;5070914;28;20036;-78
2021/11/28 09:16:57;;;;;;;11.98;6.80;;;10.10;83.40;;;;;;5070749;28;20016;-78
2021/11/28 09:21:49;;;;;;;10.82;6.40;;;10.10;83.40;;;;;;5072211;28;20067;-76
2021/11/28 09:26:58;;;;;;;11.13;6.63;;;10.10;83.30;;;;;;5067563;28;20039;-75
2021/11/28 09:29:24;;;;;;;12.82;6.97;;;10.20;83.40;;;;;;5070777;28;20024;-78
2021/11/28 09:31:50;;;;;;;12.43;6.25;;;10.20;83.10;;;;;;5071022;28;20121;-77
2021/11/28 09:34:17;;;;;;;11.57;6.32;;;10.30;83.10;;;;;;5071234;28;20031;-76
2021/11/28 09:36:42;;;;;;;11.10;6.22;;;10.20;83.00;;;;;;5070577;28;20093;-77
2021/11/28 09:39:08;;;;;;;9.70;6.22;;;10.30;82.80;;;;;;5070607;28;20013;-77
2021/11/28 09:41:36;;;;;;;10.38;6.10;;;10.40;82.50;;;;;;5070020;28;20092;-77
2021/11/28 09:44:09;;;;;;;10.85;6.63;;;10.50;82.20;;;;;;5070225;28;20093;-77
2021/11/28 09:46:36;;;;;;;11.68;6.20;;;10.50;81.90;;;;;;5071310;28;20039;-79
2021/11/28 09:49:05;;;;;;;11.20;6.88;;;10.70;82.90;;;;;;5070471;28;20024;-79
2021/11/28 09:51:30;;;;;;;10.98;6.63;;;10.60;82.70;;;;;;5071624;28;20051;-76
2021/11/28 09:54:05;;;;;;;10.85;6.43;;;10.80;82.40;;;;;;5070059;28;20024;-78
2021/11/28 09:56:37;;;;;;;11.63;7.03;;;10.80;81.80;;;;;;5069860;28;20017;-76
2021/11/28 09:59:05;;;;;;;11.93;7.18;;;10.90;81.60;;;;;;5070473;28;20132;-77
2021/11/28 10:01:33;;;;;;;10.73;6.28;;;10.90;81.30;;;;;;5075415;28;20047;-77
2021/11/28 10:03:59;;;;;;;10.32;6.32;;;10.80;81.20;;;;;;5074030;28;20417;-76
2021/11/28 10:06:26;;;;;;;11.15;6.55;;;10.80;80.80;;;;;;5074772;28;20089;-77
2021/11/28 10:08:52;;;;;;;10.25;6.43;;;10.70;80.80;;;;;;5074828;28;20107;-77
2021/11/28 10:11:17;;;;;;;11.85;6.90;;;10.80;81.20;;;;;;5075729;28;20110;-76
2021/11/28 10:13:52;;;;;;;12.13;7.20;;;10.70;81.20;;;;;;5071088;28;20470;-76
2021/11/28 10:16:18;;;;;;;10.50;7.13;;;10.70;81.30;;;;;;5072467;28;20117;-77
2021/11/28 10:18:44;;;;;;;13.45;6.88;;;10.60;81.30;;;;;;5072612;28;20025;-78
2021/11/28 10:21:10;;;;;;;10.98;6.90;;;10.60;81.40;;;;;;5073013;28;20082;-78
2021/11/28 10:24:12;;;;;;;10.35;6.63;;;10.60;81.40;;;;;;5073355;28;20457;-77
2021/11/28 10:26:52;;;;;;;11.07;6.47;;;10.50;81.40;;;;;;5072382;28;20032;-77
2021/11/28 10:29:19;;;;;;;10.57;6.93;;;10.50;81.40;;;;;;5073612;28;20049;-76
2021/11/28 10:31:49;;;;;;;11.13;7.40;;;10.50;81.50;;;;;;5073221;28;20020;-77
2021/11/28 10:34:23;;;;;;;12.40;7.80;;;10.50;81.60;;;;;;5074673;28;20017;-77
2021/11/28 10:36:52;;;;;;;10.15;7.03;;;10.50;81.70;;;;;;5072815;28;20017;-77
2021/11/28 10:39:22;;;;;;;11.32;7.05;;;10.50;81.90;;;;;;5073070;28;20024;-76
2021/11/28 10:41:54;;;;;;;11.70;7.30;;;10.40;82.30;;;;;;5072779;28;20024;-78
2021/11/28 10:44:23;;;;;;;10.65;7.28;;;10.30;82.10;;;;;;5072313;28;20085;-78
2021/11/28 10:46:50;;;;;;;10.80;7.07;;;10.40;82.90;;;;;;5072182;28;20052;-77
2021/11/28 10:49:21;;;;;;;12.45;7.35;;;10.30;82.50;;;;;;5071686;28;20726;-77
2021/11/28 10:51:51;;;;;;;10.80;7.53;;;10.30;82.60;;;;;;5071646;28;20021;-77
2021/11/28 10:54:40;;;;;;;11.68;7.63;;;10.20;82.60;;;;;;5072981;28;20031;-77
2021/11/28 10:57:05;;;;;;;12.57;7.40;;;10.20;82.60;;;;;;5071899;28;20021;-76
2021/11/28 10:59:32;;;;;;;11.48;7.70;;;10.30;82.80;;;;;;5072192;28;20028;-76
2021/11/28 11:01:57;;;;;;;10.55;7.88;;;10.20;82.80;;;;;;5073416;28;20652;-77
2021/11/28 11:04:23;;;;;;;11.27;7.90;;;10.20;82.80;;;;;;5073448;28;20028;-77
2021/11/28 11:07:12;;;;;;;12.00;8.10;;;10.20;82.80;;;;;;5072016;28;20040;-77
2021/11/28 11:09:43;;;;;;;10.32;7.60;;;10.20;83.00;;;;;;5071417;28;20109;-78
2021/11/28 11:12:19;;;;;;;12.48;8.25;;;10.20;83.00;;;;;;5072991;28;20032;-78
2021/11/28 11:14:45;;;;;;;10.60;8.10;;;10.20;83.10;;;;;;5071364;28;20017;-77
2021/11/28 11:17:11;;;;;;;12.77;8.77;;;10.20;83.10;;;;;;5071259;28;20359;-76
2021/11/28 11:19:47;;;;;;;11.68;8.10;;;10.20;83.20;;;;;;5071128;28;20029;-77
2021/11/28 11:22:19;;;;;;;11.57;8.43;;;10.20;83.20;;;;;;5071366;28;20032;-77
2021/11/28 11:24:52;;;;;;;10.30;8.13;;;10.10;83.20;;;;;;5071785;28;20031;-76
2021/11/28 11:27:36;;;;;;;12.40;8.40;;;10.20;83.20;;;;;;5072542;28;20081;-76
2021/11/28 11:30:10;;;;;;;13.15;8.85;;;10.20;83.30;;;;;;5073950;28;20063;-77
2021/11/28 11:32:46;;;;;;;12.90;8.48;;;10.20;83.30;;;;;;5074701;28;20021;-77
2021/11/28 11:35:22;;;;;;;21.92;9.43;;;10.20;83.30;;;;;;5074497;28;20025;-80
2021/11/28 11:37:49;;;;;;;18.70;8.73;;;10.20;83.40;;;;;;5074486;28;20016;-77
2021/11/28 11:40:16;;;;;;;14.73;8.88;;;10.30;83.20;;;;;;5075236;28;20035;-75
2021/11/28 11:42:44;;;;;;;21.23;9.13;;;10.10;83.10;;;;;;5075245;28;20028;-77
2021/11/28 11:45:13;;;;;;;15.27;9.63;;;10.30;83.20;;;;;;5075266;28;20024;-78
2021/11/28 11:47:40;;;;;;;13.90;9.43;;;10.30;83.30;;;;;;5074471;28;20082;-76
2021/11/28 11:50:08;;;;;;;14.00;8.90;;;10.20;83.20;;;;;;5071383;28;20032;-76
2021/11/28 11:52:33;;;;;;;16.75;9.45;;;10.20;83.30;;;;;;5076411;28;20024;-76
2021/11/28 11:55:21;;;;;;;13.50;9.40;;;10.20;83.20;;;;;;5074878;28;20112;-76
2021/11/28 11:58:33;;;;;;;12.40;8.88;;;10.30;83.20;;;;;;5062049;28;20062;-76
2021/11/28 12:01:20;;;;;;;14.98;9.63;;;10.30;83.20;;;;;;5074792;28;20098;-75
2021/11/28 12:03:54;;;;;;;14.35;9.63;;;10.30;83.10;;;;;;5073736;28;20105;-76
2021/11/28 12:06:45;;;;;;;15.38;9.20;;;10.30;83.00;;;;;;5075337;28;20504;-76
2021/11/28 12:09:24;;;;;;;15.98;9.10;;;10.20;83.00;;;;;;5075432;28;20074;-75
2021/11/28 12:11:58;;;;;;;12.88;9.40;;;10.30;83.00;;;;;;5072494;28;20390;-76
2021/11/28 12:14:24;;;;;;;13.10;9.40;;;10.30;83.00;;;;;;5074614;28;20385;-77
2021/11/28 12:16:50;;;;;;;14.70;9.00;;;10.40;82.90;;;;;;5073323;28;20020;-76
2021/11/28 12:19:43;;;;;;;14.15;9.38;;;10.30;83.00;;;;;;5073701;28;20025;-77
2021/11/28 12:22:44;;;;;;;13.80;9.10;;;10.40;83.30;;;;;;5064940;28;20036;-76
2021/11/28 12:25:35;;;;;;;15.18;9.60;;;10.50;83.30;;;;;;5021889;28;20140;-77
2021/11/28 12:28:20;;;;;;;12.75;9.20;;;10.50;83.60;;;;;;5073986;28;20029;-77
2021/11/28 12:30:56;;;;;;;13.13;9.80;;;10.50;83.80;;;;;;5073345;28;20119;-77
2021/11/28 12:34:02;;;;;;;17.13;10.48;;;10.40;84.30;;;;;;5074573;28;20033;-78
2021/11/28 12:36:34;;;;;;;13.13;9.68;;;10.50;84.10;;;;;;5012353;28;20026;-75
2021/11/28 12:39:21;;;;;;;15.25;10.02;;;10.50;84.60;;;;;;5012009;28;20090;-77
2021/11/28 12:41:47;;;;;;;14.38;10.20;;;10.60;84.70;;;;;;5040543;28;20043;-78
2021/11/28 12:44:25;;;;;;;15.85;10.63;;;10.60;85.10;;;;;;5074450;28;20428;-77
2021/11/28 12:46:52;;;;;;;20.52;10.82;;;10.60;85.80;;;;;;5070197;28;20025;-79
2021/11/28 12:49:30;;;;;;;17.23;10.10;;;10.70;87.00;;;;;;5072718;28;20039;-77
2021/11/28 12:52:25;;;;;;;18.20;10.70;;;10.70;86.20;;;;;;5072808;28;20016;-78
2021/11/28 12:55:08;;;;;;;16.45;10.75;;;10.80;86.40;;;;;;5072809;28;20564;-78
2021/11/28 12:57:42;;;;;;;16.02;10.73;;;10.80;87.10;;;;;;5072672;28;20025;-78